Time;durP1;ratioP1;P1;durP2;ratioP2;P2;SDS_P1;SDS_P2;PMS_P1;PMS_P2;Temp;Humidity;BMP_temperature;BMP_pressure;BME280_temperature;BME280_humidity;BME280_pressure;Samples;Min_cycle;Max_cycle;Signal;HPM_P1;HPM_P2
2022/10/30 00:06:26;;;;;;;6.73;6.00;;;12.20;99.90;;;;;;4858866;26;20239;-91
2022/10/30 00:08:54;;;;;;;6.27;5.63;;;12.20;99.90;;;;;;5036838;28;20185;-92
2022/10/30 00:11:28;;;;;;;7.27;6.57;;;12.30;99.90;;;;;;5049481;23;20213;-90
2022/10/30 00:14:17;;;;;;;6.30;5.70;;;12.30;99.90;;;;;;5016829;28;20173;-90
2022/10/30 00:16:49;;;;;;;6.97;5.90;;;12.30;99.90;;;;;;5143986;23;20233;-92
2022/10/30 00:19:28;;;;;;;6.87;6.17;;;12.30;99.90;;;;;;5017709;28;20198;-92
2022/10/30 00:22:38;;;;;;;6.67;6.03;;;12.20;99.90;;;;;;5012716;28;21176;-90
2022/10/30 00:25:32;;;;;;;6.37;5.73;;;12.20;99.90;;;;;;5003917;28;20229;-90
2022/10/30 00:28:50;;;;;;;6.33;5.73;;;12.30;99.90;;;;;;5000701;28;20322;-90
2022/10/30 00:31:46;;;;;;;6.90;6.20;;;12.20;99.90;;;;;;4938863;29;20221;-89
2022/10/30 00:34:39;;;;;;;6.33;5.70;;;12.20;99.90;;;;;;5267053;23;20216;-90
2022/10/30 00:37:32;;;;;;;6.87;6.00;;;12.30;99.90;;;;;;4998864;23;20237;-89
2022/10/30 00:39:57;;;;;;;6.60;6.00;;;12.30;99.90;;;;;;5031962;22;20240;-89
2022/10/30 00:42:31;;;;;;;7.13;5.80;;;12.40;99.90;;;;;;5028639;23;20245;-90
2022/10/30 00:44:58;;;;;;;6.43;5.70;;;12.30;99.90;;;;;;5037881;23;20255;-90
2022/10/30 00:47:34;;;;;;;7.33;5.40;;;12.40;99.90;;;;;;5036529;28;20197;-90
2022/10/30 00:50:25;;;;;;;6.77;6.20;;;12.40;99.90;;;;;;5124671;23;20212;-90
2022/10/30 00:55:36;;;;;;;6.37;5.77;;;12.30;99.90;;;;;;5109078;23;20232;-91
2022/10/30 00:58:44;;;;;;;6.33;5.73;;;12.30;99.90;;;;;;5018759;28;20177;-91
2022/10/30 01:01:58;;;;;;;6.37;5.60;;;12.30;99.90;;;;;;4988782;28;20177;-91
2022/10/30 01:05:12;;;;;;;6.17;5.63;;;12.40;99.90;;;;;;5034836;23;20288;-90
2022/10/30 01:08:16;;;;;;;6.23;5.63;;;12.30;99.90;;;;;;5037058;23;20243;-90
2022/10/30 01:10:42;;;;;;;7.03;5.53;;;12.30;99.90;;;;;;4960175;28;20227;-91
2022/10/30 01:16:32;;;;;;;9.03;5.53;;;12.30;99.90;;;;;;5159300;22;20243;-90
2022/10/30 01:19:37;;;;;;;8.10;5.40;;;12.30;99.90;;;;;;5031057;28;20718;-91
2022/10/30 01:22:40;;;;;;;6.17;5.57;;;12.40;99.90;;;;;;5030449;28;20192;-91
2022/10/30 01:25:59;;;;;;;5.77;5.27;;;12.40;99.90;;;;;;4936453;29;20187;-91
2022/10/30 01:29:04;;;;;;;7.43;5.47;;;12.30;99.90;;;;;;4861604;29;20199;-91
2022/10/30 01:32:15;;;;;;;7.97;6.10;;;12.20;99.90;;;;;;4861460;29;20596;-91
2022/10/30 01:35:35;;;;;;;6.23;5.63;;;12.20;99.90;;;;;;4859288;29;20640;-90
2022/10/30 01:38:18;;;;;;;5.90;5.30;;;12.20;99.90;;;;;;4805020;30;20260;-90
2022/10/30 01:40:44;;;;;;;7.20;6.07;;;12.10;99.90;;;;;;4979819;22;20303;-90
2022/10/30 01:46:14;;;;;;;6.27;5.67;;;12.10;99.90;;;;;;5009868;23;20251;-91
2022/10/30 01:49:23;;;;;;;6.67;5.97;;;12.20;99.90;;;;;;5001341;28;20206;-90
2022/10/30 01:52:09;;;;;;;8.37;7.20;;;12.10;99.90;;;;;;4962491;28;20258;-92
2022/10/30 01:54:38;;;;;;;8.50;6.83;;;12.10;99.90;;;;;;5007190;23;20264;-90
2022/10/30 02:00:12;;;;;;;9.90;7.90;;;12.10;99.90;;;;;;4621876;26;20225;-90
2022/10/30 02:02:39;;;;;;;8.43;7.57;;;12.10;99.90;;;;;;5007717;28;20205;-91
2022/10/30 02:05:29;;;;;;;7.87;7.17;;;12.00;99.90;;;;;;4978939;28;20189;-91
2022/10/30 02:07:55;;;;;;;8.20;7.40;;;11.90;99.90;;;;;;4996267;28;20205;-90
2022/10/30 02:10:25;;;;;;;8.23;7.53;;;11.80;99.90;;;;;;5008409;23;20265;-90
2022/10/30 02:12:56;;;;;;;8.90;7.17;;;11.80;99.90;;;;;;5040800;23;20227;-90
2022/10/30 02:15:22;;;;;;;8.27;7.40;;;11.90;99.90;;;;;;5015006;28;20193;-90
2022/10/30 02:17:48;;;;;;;8.40;7.47;;;11.80;99.90;;;;;;5043832;23;20324;-90
2022/10/30 02:20:52;;;;;;;7.87;7.07;;;11.80;99.90;;;;;;5101735;23;20267;-90
2022/10/30 02:23:27;;;;;;;8.50;7.50;;;11.70;99.90;;;;;;5020673;23;20239;-91
2022/10/30 02:25:53;;;;;;;7.43;6.83;;;11.70;99.90;;;;;;5019254;28;20186;-90
2022/10/30 02:28:29;;;;;;;8.13;7.17;;;11.70;99.90;;;;;;5020553;28;20247;-91
2022/10/30 02:31:20;;;;;;;8.10;7.40;;;11.70;99.90;;;;;;5289499;22;20240;-91
2022/10/30 02:33:46;;;;;;;8.67;7.87;;;11.60;99.90;;;;;;5020556;28;20231;-92
2022/10/30 02:36:20;;;;;;;9.80;8.80;;;11.60;99.90;;;;;;5029426;22;20181;-89
2022/10/30 02:38:50;;;;;;;12.67;10.03;;;11.60;99.90;;;;;;4990874;28;20220;-91
2022/10/30 02:41:15;;;;;;;12.20;10.57;;;11.60;99.90;;;;;;5107195;23;20208;-91
2022/10/30 02:44:20;;;;;;;12.50;10.17;;;11.60;99.90;;;;;;5035335;23;20240;-91
2022/10/30 02:47:23;;;;;;;10.73;9.67;;;11.60;99.90;;;;;;5038132;28;20220;-90
2022/10/30 02:49:55;;;;;;;15.33;10.10;;;11.50;99.90;;;;;;5045275;22;20283;-91
2022/10/30 02:52:21;;;;;;;10.90;9.77;;;11.50;99.90;;;;;;5021291;28;20161;-89
2022/10/30 02:54:50;;;;;;;12.30;9.77;;;11.50;99.90;;;;;;5279254;23;20213;-91
2022/10/30 02:57:43;;;;;;;11.33;10.10;;;11.40;99.90;;;;;;5100894;22;20202;-91
2022/10/30 03:00:10;;;;;;;10.07;9.07;;;11.40;99.90;;;;;;4995429;28;20208;-90
2022/10/30 03:03:21;;;;;;;9.90;8.93;;;11.30;99.90;;;;;;5076709;23;20232;-91
2022/10/30 03:05:53;;;;;;;9.87;8.80;;;11.20;99.90;;;;;;5107561;23;20224;-90
2022/10/30 03:08:20;;;;;;;9.60;8.60;;;11.20;99.90;;;;;;5027234;23;20289;-91
2022/10/30 03:11:33;;;;;;;10.50;9.17;;;11.30;99.90;;;;;;5024571;23;20271;-91
2022/10/30 03:14:10;;;;;;;9.73;8.83;;;11.20;99.90;;;;;;5018134;28;20154;-90
2022/10/30 03:19:24;;;;;;;10.80;9.33;;;11.30;99.90;;;;;;5108403;23;20249;-89
2022/10/30 03:22:02;;;;;;;8.73;7.83;;;11.30;99.90;;;;;;5076339;23;20231;-90
2022/10/30 03:24:45;;;;;;;9.00;8.10;;;11.40;99.90;;;;;;5058540;22;20232;-91
2022/10/30 03:30:35;;;;;;;7.90;7.20;;;11.20;99.90;;;;;;5031131;23;20244;-91
2022/10/30 03:33:01;;;;;;;8.23;7.40;;;11.30;99.90;;;;;;5001470;28;20257;-89
2022/10/30 03:35:47;;;;;;;9.87;7.93;;;11.20;99.90;;;;;;5011331;23;20194;-90
2022/10/30 03:38:35;;;;;;;7.90;7.10;;;11.10;99.90;;;;;;5045559;22;20239;-90
2022/10/30 03:41:05;;;;;;;9.10;8.20;;;11.20;99.90;;;;;;5180048;23;20237;-91
2022/10/30 03:43:50;;;;;;;8.97;7.83;;;11.20;99.90;;;;;;5101971;23;20226;-90
2022/10/30 03:46:54;;;;;;;8.60;7.70;;;11.10;99.90;;;;;;5192823;23;20260;-90
2022/10/30 03:49:39;;;;;;;8.87;7.97;;;11.20;99.90;;;;;;5047408;22;20280;-90
2022/10/30 03:52:14;;;;;;;8.17;7.37;;;11.10;99.90;;;;;;5046264;23;20231;-91
2022/10/30 03:55:42;;;;;;;8.07;7.37;;;11.00;99.90;;;;;;4972932;28;20214;-90
2022/10/30 04:00:50;;;;;;;8.20;7.50;;;11.00;99.90;;;;;;5054206;22;20226;-90
2022/10/30 04:03:34;;;;;;;7.70;7.00;;;11.00;99.90;;;;;;5105780;22;20228;-91
2022/10/30 04:06:32;;;;;;;8.27;7.47;;;11.10;99.90;;;;;;5039544;28;20243;-91
2022/10/30 04:08:58;;;;;;;7.57;6.87;;;11.10;99.90;;;;;;4983025;28;20202;-92
2022/10/30 04:11:26;;;;;;;7.40;6.80;;;11.00;99.90;;;;;;5011890;23;20216;-89
2022/10/30 04:14:16;;;;;;;7.83;7.20;;;11.00;99.90;;;;;;5110249;23;20296;-89
2022/10/30 04:19:52;;;;;;;8.37;7.57;;;11.00;99.90;;;;;;5078299;22;20231;-90
2022/10/30 04:22:48;;;;;;;8.30;7.47;;;10.90;99.90;;;;;;5008923;23;20202;-89
2022/10/30 04:25:46;;;;;;;9.43;8.50;;;11.00;99.90;;;;;;5038743;28;20231;-91
2022/10/30 04:28:20;;;;;;;9.57;8.30;;;11.00;99.90;;;;;;5000208;28;20194;-92
2022/10/30 04:30:51;;;;;;;8.50;7.60;;;10.90;99.90;;;;;;5000646;28;20164;-90
2022/10/30 04:33:50;;;;;;;8.60;7.80;;;10.90;99.90;;;;;;5083992;22;20243;-91
2022/10/30 04:36:28;;;;;;;9.50;8.60;;;10.90;99.90;;;;;;5281591;23;20224;-91
2022/10/30 04:39:28;;;;;;;8.90;8.00;;;10.90;99.90;;;;;;5019834;28;20189;-91
2022/10/30 04:42:39;;;;;;;8.73;7.93;;;10.80;99.90;;;;;;4943361;28;20184;-90
2022/10/30 04:45:11;;;;;;;9.47;8.13;;;10.80;99.90;;;;;;4941381;28;20182;-91
2022/10/30 04:47:49;;;;;;;9.43;8.43;;;10.80;99.90;;;;;;4956635;28;20236;-90
2022/10/30 04:50:14;;;;;;;10.83;8.63;;;10.80;99.90;;;;;;4944577;28;20208;-90
2022/10/30 04:53:31;;;;;;;8.77;7.87;;;10.80;99.90;;;;;;5014992;22;20216;-89
2022/10/30 05:01:37;;;;;;;9.10;8.13;;;10.70;99.90;;;;;;5035962;28;20216;-90
2022/10/30 05:04:20;;;;;;;9.60;8.43;;;10.60;99.90;;;;;;5026819;23;20243;-90
2022/10/30 05:07:02;;;;;;;8.40;7.60;;;10.60;99.90;;;;;;5055079;23;20297;-92
2022/10/30 05:09:31;;;;;;;10.03;8.87;;;10.60;99.90;;;;;;5045447;22;20217;-90
2022/10/30 05:12:18;;;;;;;9.57;8.50;;;10.60;99.90;;;;;;5028724;28;20271;-89
2022/10/30 05:14:55;;;;;;;8.50;7.80;;;10.50;99.90;;;;;;5022792;28;20192;-90
2022/10/30 05:17:23;;;;;;;8.57;7.67;;;10.50;99.90;;;;;;5052640;22;20239;-90
2022/10/30 05:26:43;;;;;;;8.10;7.30;;;10.50;99.90;;;;;;5039682;28;20316;-91
2022/10/30 05:29:15;;;;;;;8.47;7.60;;;10.50;99.90;;;;;;4957864;28;20185;-90
2022/10/30 05:31:47;;;;;;;8.30;7.50;;;10.50;99.90;;;;;;5039185;28;20165;-89
2022/10/30 05:36:45;;;;;;;7.87;7.17;;;10.50;99.90;;;;;;5018027;28;20230;-91
2022/10/30 05:39:16;;;;;;;8.63;7.83;;;10.40;99.90;;;;;;5002151;28;20181;-89
2022/10/30 05:44:21;;;;;;;7.70;7.10;;;10.60;99.90;;;;;;5056606;26;20206;-90
2022/10/30 05:52:16;;;;;;;8.13;7.43;;;10.50;99.90;;;;;;3348743;26;20239;-91
2022/10/30 05:57:16;;;;;;;7.60;6.90;;;10.50;99.90;;;;;;5033119;22;20217;-90
2022/10/30 06:00:13;;;;;;;7.07;6.47;;;10.50;99.90;;;;;;5140459;23;20244;-90
2022/10/30 06:02:57;;;;;;;7.07;6.47;;;10.50;99.90;;;;;;5018990;28;20205;-90
2022/10/30 06:05:53;;;;;;;8.20;7.50;;;10.40;99.90;;;;;;5124871;23;20240;-90
2022/10/30 06:11:02;;;;;;;7.53;6.80;;;10.40;99.90;;;;;;1944590;22;20220;-91
2022/10/30 06:13:31;;;;;;;7.33;6.70;;;10.40;99.90;;;;;;5037463;22;20189;-90
2022/10/30 06:15:57;;;;;;;6.90;6.30;;;10.50;99.90;;;;;;5015311;28;20251;-91
2022/10/30 06:18:25;;;;;;;7.30;6.70;;;10.40;99.90;;;;;;5171835;23;20231;-91
2022/10/30 06:21:17;;;;;;;9.33;8.53;;;10.50;99.90;;;;;;5045061;23;20221;-90
2022/10/30 06:28:57;;;;;;;7.00;6.40;;;10.60;99.90;;;;;;3959520;22;20247;-90
2022/10/30 06:31:26;;;;;;;7.80;7.10;;;10.60;99.90;;;;;;5207712;22;20233;-91
2022/10/30 06:34:07;;;;;;;8.73;7.93;;;10.60;99.90;;;;;;5087091;22;20275;-91
2022/10/30 06:39:32;;;;;;;8.70;7.80;;;10.70;99.90;;;;;;5044310;23;20244;-92
2022/10/30 06:42:14;;;;;;;8.03;6.73;;;10.80;99.90;;;;;;5038398;28;20231;-89
2022/10/30 06:44:45;;;;;;;7.97;7.23;;;10.80;99.90;;;;;;5038646;28;20193;-90
2022/10/30 06:47:21;;;;;;;7.47;6.83;;;10.90;99.90;;;;;;5034226;28;20215;-89
2022/10/30 06:49:59;;;;;;;7.23;6.63;;;10.90;99.90;;;;;;5260846;23;20225;-90
2022/10/30 06:52:27;;;;;;;7.37;6.60;;;11.00;99.90;;;;;;5267816;23;20211;-89
2022/10/30 06:54:58;;;;;;;7.67;6.97;;;10.90;99.90;;;;;;5079471;23;20233;-90
2022/10/30 06:57:25;;;;;;;7.87;7.17;;;10.90;99.90;;;;;;5157364;23;20237;-89
2022/10/30 06:59:52;;;;;;;7.40;6.80;;;10.90;99.90;;;;;;5091227;23;20219;-89
2022/10/30 07:06:09;;;;;;;8.40;6.67;;;11.00;99.90;;;;;;5206713;23;20235;-91
2022/10/30 07:08:55;;;;;;;8.07;7.37;;;11.10;99.90;;;;;;5010651;28;20306;-93
2022/10/30 07:11:20;;;;;;;7.40;6.80;;;11.10;99.90;;;;;;5117360;23;20217;-91
2022/10/30 07:13:48;;;;;;;7.53;6.93;;;11.00;99.90;;;;;;5020455;28;20225;-96
2022/10/30 07:16:27;;;;;;;7.43;6.83;;;11.10;99.90;;;;;;5022233;28;20162;-92
2022/10/30 07:19:06;;;;;;;7.10;6.60;;;11.20;99.90;;;;;;5039656;23;20206;-93
2022/10/30 07:27:50;;;;;;;8.23;7.53;;;11.30;99.90;;;;;;5121401;22;20243;-93
2022/10/30 07:33:07;;;;;;;7.43;6.83;;;11.60;99.90;;;;;;5300930;22;20237;-90
2022/10/30 07:35:58;;;;;;;7.43;6.73;;;11.70;99.90;;;;;;4993192;28;20281;-90
2022/10/30 07:38:44;;;;;;;6.87;6.27;;;11.70;99.90;;;;;;5170726;22;20221;-91
2022/10/30 07:44:19;;;;;;;7.00;6.30;;;12.00;99.90;;;;;;5176952;23;20311;-90
2022/10/30 07:47:06;;;;;;;7.03;6.43;;;12.00;99.90;;;;;;5046516;23;20239;-90
2022/10/30 07:50:27;;;;;;;6.63;6.13;;;12.10;99.90;;;;;;5109013;22;20228;-90
2022/10/30 07:53:46;;;;;;;7.23;6.63;;;12.20;99.90;;;;;;5383792;22;20243;-90
2022/10/30 08:05:17;;;;;;;7.57;6.97;;;12.40;99.90;;;;;;4191945;26;20234;-94
2022/10/30 08:07:47;;;;;;;6.70;6.20;;;12.50;99.90;;;;;;4988400;28;20684;-93
2022/10/30 08:10:27;;;;;;;6.77;6.17;;;12.60;99.90;;;;;;5020774;28;20193;-90
2022/10/30 08:13:13;;;;;;;6.70;6.20;;;12.70;99.90;;;;;;5233795;23;20228;-88
2022/10/30 08:15:44;;;;;;;7.33;6.63;;;12.70;99.90;;;;;;4979286;28;20238;-89
2022/10/30 08:21:07;;;;;;;6.73;6.13;;;12.80;99.90;;;;;;5067313;22;20711;-89
2022/10/30 08:24:03;;;;;;;7.20;6.60;;;12.90;99.90;;;;;;5022496;28;20177;-90
2022/10/30 08:26:37;;;;;;;7.47;6.57;;;13.00;99.90;;;;;;5040481;28;20184;-90
2022/10/30 08:29:21;;;;;;;6.33;5.83;;;13.10;99.90;;;;;;5248634;22;20243;-90
2022/10/30 08:31:55;;;;;;;6.63;6.03;;;13.10;99.90;;;;;;5022479;28;20200;-89
2022/10/30 08:34:36;;;;;;;6.33;5.73;;;13.20;99.90;;;;;;5046080;22;20208;-90
2022/10/30 08:37:28;;;;;;;6.83;6.20;;;13.30;99.90;;;;;;5017132;28;20185;-89
2022/10/30 08:45:47;;;;;;;9.60;6.40;;;13.50;99.90;;;;;;5216003;23;20225;-89
2022/10/30 08:48:14;;;;;;;6.80;5.97;;;13.60;99.90;;;;;;5023198;28;20196;-90
2022/10/30 08:54:35;;;;;;;6.40;5.87;;;13.80;99.90;;;;;;5040620;28;20218;-90
2022/10/30 08:59:29;;;;;;;6.33;5.83;;;14.00;99.90;;;;;;5137729;22;20252;-96
2022/10/30 09:02:06;;;;;;;6.90;5.97;;;14.10;99.90;;;;;;5044947;23;20236;-91
2022/10/30 09:04:32;;;;;;;6.50;5.90;;;14.20;99.90;;;;;;5019943;28;20242;-95
2022/10/30 09:07:00;;;;;;;7.50;6.10;;;14.20;99.90;;;;;;5021224;28;20219;-95
2022/10/30 09:09:26;;;;;;;6.37;5.77;;;14.30;99.90;;;;;;5043638;23;20185;-90
2022/10/30 09:14:39;;;;;;;6.00;5.50;;;14.60;99.90;;;;;;5034757;28;20254;-96
2022/10/30 09:23:48;;;;;;;6.40;5.80;;;14.80;99.90;;;;;;5069241;23;20263;-94
2022/10/30 09:26:15;;;;;;;6.60;5.90;;;14.80;99.90;;;;;;4976917;29;20258;-95
2022/10/30 09:28:46;;;;;;;7.40;6.00;;;14.90;99.90;;;;;;4955116;29;20181;-94
2022/10/30 09:31:32;;;;;;;6.43;5.87;;;15.10;99.90;;;;;;4979105;28;20206;-94
2022/10/30 09:36:46;;;;;;;6.03;5.53;;;15.30;99.90;;;;;;5135805;23;20714;-95
2022/10/30 09:39:41;;;;;;;6.30;5.70;;;15.30;99.90;;;;;;5014463;28;20185;-94
2022/10/30 09:43:04;;;;;;;5.97;5.43;;;15.40;99.90;;;;;;5056101;23;20233;-96
2022/10/30 09:46:01;;;;;;;6.97;5.60;;;15.50;99.90;;;;;;5033407;23;20705;-94
2022/10/30 09:59:16;;;;;;;5.90;5.40;;;15.90;99.90;;;;;;3429942;22;20708;-93
2022/10/30 10:01:48;;;;;;;5.90;5.30;;;16.20;99.90;;;;;;4978419;28;20715;-94
2022/10/30 10:04:35;;;;;;;6.87;5.40;;;16.20;99.90;;;;;;4978331;28;20186;-94
2022/10/30 10:07:09;;;;;;;8.53;5.60;;;16.30;99.90;;;;;;4977902;28;20288;-95
2022/10/30 10:09:59;;;;;;;6.93;5.00;;;16.40;99.90;;;;;;4984522;28;20174;-90
2022/10/30 10:18:24;;;;;;;7.23;5.50;;;16.70;99.90;;;;;;4152951;22;20244;-90
2022/10/30 10:20:56;;;;;;;8.23;4.87;;;16.70;99.90;;;;;;5012745;28;20177;-90
2022/10/30 10:25:52;;;;;;;6.23;4.20;;;16.90;99.90;;;;;;5085073;22;20240;-88
2022/10/30 10:31:37;;;;;;;5.03;4.20;;;17.10;99.90;;;;;;5013382;28;20221;-94
2022/10/30 10:34:18;;;;;;;7.27;4.47;;;17.20;99.90;;;;;;4995100;28;20181;-91
2022/10/30 10:36:53;;;;;;;7.47;4.73;;;17.30;99.90;;;;;;4989192;28;20324;-90
2022/10/30 10:39:40;;;;;;;5.77;4.27;;;17.40;99.90;;;;;;5006865;28;20164;-92
2022/10/30 10:42:39;;;;;;;5.43;4.10;;;17.50;99.90;;;;;;5102679;23;20216;-91
2022/10/30 10:48:00;;;;;;;6.90;4.03;;;17.60;99.90;;;;;;5040037;23;20237;-90
2022/10/30 10:53:45;;;;;;;8.40;4.03;;;18.00;99.90;;;;;;5116855;22;20259;-91
2022/10/30 10:56:14;;;;;;;7.50;3.80;;;18.00;99.90;;;;;;5047372;22;20270;-90
2022/10/30 10:59:37;;;;;;;5.47;4.43;;;18.10;99.90;;;;;;5024525;28;20172;-94
2022/10/30 11:02:33;;;;;;;5.40;4.30;;;18.20;99.90;;;;;;5040217;22;20224;-93
2022/10/30 11:05:48;;;;;;;5.27;4.70;;;18.20;99.90;;;;;;5038050;28;20175;-93
2022/10/30 11:08:25;;;;;;;7.10;4.30;;;18.20;99.90;;;;;;4991202;28;20185;-91
2022/10/30 11:11:18;;;;;;;6.43;4.77;;;18.30;99.90;;;;;;4995770;28;20192;-92
2022/10/30 11:13:47;;;;;;;5.27;3.70;;;18.40;99.90;;;;;;5011833;28;20205;-90
2022/10/30 11:16:54;;;;;;;7.67;3.97;;;18.40;99.90;;;;;;5014856;28;20181;-90
2022/10/30 11:19:21;;;;;;;6.57;4.57;;;18.50;99.90;;;;;;5028255;28;20165;-89
2022/10/30 11:21:54;;;;;;;6.37;4.03;;;18.50;99.90;;;;;;5020505;23;20565;-89
2022/10/30 11:24:37;;;;;;;7.43;4.20;;;18.50;99.90;;;;;;5031962;28;20189;-91
2022/10/30 11:27:24;;;;;;;5.30;4.00;;;18.60;99.90;;;;;;5101597;23;20238;-91
2022/10/30 11:30:02;;;;;;;4.37;3.97;;;18.70;99.90;;;;;;5016124;28;20216;-90
2022/10/30 11:32:32;;;;;;;7.00;4.23;;;18.70;99.90;;;;;;5032729;28;20176;-93
2022/10/30 11:35:08;;;;;;;4.90;3.53;;;18.80;99.90;;;;;;5030643;28;20189;-90
2022/10/30 11:49:46;;;;;;;4.03;3.60;;;18.90;99.90;;;;;;5404589;22;20403089;-93
2022/10/30 11:52:17;;;;;;;6.07;3.73;;;19.20;99.90;;;;;;6290343;22;20474;-90
2022/10/30 11:54:49;;;;;;;6.60;3.63;;;19.40;99.90;;;;;;6298289;22;20150;-91
2022/10/30 11:57:35;;;;;;;7.00;4.10;;;19.50;99.90;;;;;;6299440;22;20172;-90
2022/10/30 12:00:15;;;;;;;4.30;3.77;;;19.50;99.90;;;;;;6308055;22;20134;-90
2022/10/30 12:02:46;;;;;;;7.13;3.73;;;19.50;99.90;;;;;;6304118;22;20130;-89
2022/10/30 12:05:25;;;;;;;6.20;3.63;;;19.60;99.90;;;;;;6290037;22;20519;-91
2022/10/30 12:07:53;;;;;;;7.23;3.60;;;19.60;99.90;;;;;;6252361;23;20151;-92
2022/10/30 12:10:25;;;;;;;9.83;4.43;;;19.60;99.90;;;;;;6249372;22;20191;-91
2022/10/30 12:12:51;;;;;;;4.67;3.20;;;19.60;99.90;;;;;;6250963;22;20133;-89
2022/10/30 12:15:43;;;;;;;4.07;3.40;;;19.60;99.90;;;;;;6253152;22;20163;-91
2022/10/30 12:18:31;;;;;;;4.13;3.23;;;19.70;99.90;;;;;;6251855;22;20223;-92
2022/10/30 12:20:57;;;;;;;23.10;7.40;;;19.80;99.90;;;;;;6252243;22;20207;-92
2022/10/30 12:23:29;;;;;;;7.77;4.00;;;19.80;99.90;;;;;;6247637;22;20148;-92
2022/10/30 12:26:01;;;;;;;4.30;3.17;;;19.90;99.90;;;;;;6269456;22;20202;-93
2022/10/30 12:28:31;;;;;;;5.90;4.23;;;19.90;99.90;;;;;;6249839;22;20155;-92
2022/10/30 12:31:07;;;;;;;7.37;4.53;;;20.00;99.90;;;;;;6280196;22;20166;-91
2022/10/30 12:34:08;;;;;;;9.27;4.80;;;20.00;99.90;;;;;;6243916;23;20204;-91
2022/10/30 12:36:45;;;;;;;20.27;7.53;;;20.00;99.90;;;;;;6152853;23;20160;-91
2022/10/30 12:39:25;;;;;;;8.47;5.33;;;20.10;99.90;;;;;;6135557;23;20165;-92
2022/10/30 12:42:26;;;;;;;5.53;4.57;;;20.00;99.90;;;;;;6159070;23;20142;-92
2022/10/30 12:45:06;;;;;;;5.37;4.10;;;20.00;99.90;;;;;;6149276;23;20152;-91
2022/10/30 12:47:46;;;;;;;5.73;3.70;;;20.10;99.90;;;;;;6182338;22;20197;-91
2022/10/30 12:50:22;;;;;;;4.73;3.17;;;20.10;99.90;;;;;;6280751;22;20138;-93
2022/10/30 12:53:07;;;;;;;6.05;3.83;;;20.10;99.90;;;;;;6300116;22;20397;-92
2022/10/30 12:55:35;;;;;;;7.63;3.40;;;20.10;99.90;;;;;;6274186;22;20146;-91
2022/10/30 12:58:33;;;;;;;8.27;3.13;;;20.20;99.90;;;;;;6273387;22;20190;-90
2022/10/30 13:01:34;;;;;;;9.50;6.90;;;20.30;99.90;;;;;;6200918;22;20147;-94
2022/10/30 13:04:18;;;;;;;6.73;4.03;;;20.30;99.90;;;;;;6269674;22;20235;-94
2022/10/30 13:06:50;;;;;;;5.67;3.67;;;20.30;99.90;;;;;;6263943;22;20157;-93
2022/10/30 13:09:46;;;;;;;6.87;3.60;;;20.40;99.90;;;;;;6262918;22;20170;-94
2022/10/30 13:12:17;;;;;;;8.17;3.87;;;20.40;99.90;;;;;;6294755;22;20158;-89
2022/10/30 13:15:00;;;;;;;6.30;3.70;;;20.40;99.90;;;;;;6241017;23;20206;-90
2022/10/30 13:17:27;;;;;;;5.18;3.63;;;20.40;99.90;;;;;;6255394;23;20183;-88
2022/10/30 13:19:55;;;;;;;4.67;3.77;;;20.40;99.90;;;;;;6265370;22;20246;-90
2022/10/30 13:22:39;;;;;;;5.87;3.90;;;20.40;99.90;;;;;;6262607;23;20167;-89
2022/10/30 13:25:31;;;;;;;4.80;3.70;;;20.40;99.90;;;;;;6264023;23;20219;-93
2022/10/30 13:28:35;;;;;;;3.93;3.60;;;20.30;99.90;;;;;;6264072;22;20159;-90
2022/10/30 13:31:25;;;;;;;6.10;3.50;;;20.30;99.90;;;;;;6256989;22;20162;-89
2022/10/30 13:34:12;;;;;;;5.40;3.60;;;20.30;99.90;;;;;;6265616;22;20140;-88
2022/10/30 13:36:54;;;;;;;7.40;3.70;;;20.30;99.90;;;;;;6267831;23;20166;-87
2022/10/30 13:39:26;;;;;;;6.83;4.00;;;20.30;99.90;;;;;;6243367;22;20147;-90
2022/10/30 13:42:46;;;;;;;8.87;3.33;;;20.20;99.90;;;;;;6268594;22;20193;-89
2022/10/30 13:45:51;;;;;;;7.17;3.67;;;20.20;99.90;;;;;;6202126;22;20155;-91
2022/10/30 13:48:33;;;;;;;6.73;3.43;;;20.20;99.90;;;;;;6293542;22;20205;-87
2022/10/30 13:51:25;;;;;;;5.57;3.60;;;20.10;99.90;;;;;;6271414;22;20159;-92
2022/10/30 13:54:24;;;;;;;7.67;3.70;;;20.10;99.90;;;;;;6257147;22;20154;-92
2022/10/30 13:56:51;;;;;;;6.40;3.73;;;20.10;99.90;;;;;;6289309;22;20155;-93
2022/10/30 13:59:48;;;;;;;7.27;3.90;;;20.00;99.90;;;;;;6260918;22;20177;-94
2022/10/30 14:02:39;;;;;;;6.40;4.93;;;20.00;99.90;;;;;;6283744;22;20220;-91
2022/10/30 14:05:39;;;;;;;5.23;4.27;;;20.00;99.90;;;;;;6293012;22;20161;-96
2022/10/30 14:08:36;;;;;;;4.73;3.87;;;20.00;99.90;;;;;;6292056;22;20142;-93
2022/10/30 14:11:05;;;;;;;6.43;4.67;;;20.00;99.90;;;;;;6270551;22;20180;-93
2022/10/30 14:14:12;;;;;;;7.07;4.60;;;19.90;99.90;;;;;;6295764;22;20185;-94
2022/10/30 14:16:44;;;;;;;6.77;4.10;;;19.90;99.90;;;;;;6281039;22;20161;-95
2022/10/30 14:19:15;;;;;;;4.43;3.67;;;19.90;99.90;;;;;;6262716;22;20194;-96
2022/10/30 14:21:57;;;;;;;6.77;3.83;;;19.90;99.90;;;;;;6289891;22;20142;-94
2022/10/30 14:24:30;;;;;;;5.67;3.63;;;19.80;99.90;;;;;;6295394;22;20135;-89
2022/10/30 14:27:12;;;;;;;3.63;3.30;;;19.80;99.90;;;;;;6274236;22;20142;-93
2022/10/30 14:29:59;;;;;;;6.50;4.20;;;19.80;99.90;;;;;;6267836;22;20150;-96
2022/10/30 14:32:34;;;;;;;4.37;3.70;;;19.70;99.90;;;;;;6293725;22;20135;-96
2022/10/30 14:35:00;;;;;;;7.23;4.37;;;19.70;99.90;;;;;;6263340;22;20174;-93
2022/10/30 14:37:26;;;;;;;5.67;3.87;;;19.60;99.90;;;;;;6264856;22;20594;-91
2022/10/30 14:39:54;;;;;;;5.73;3.67;;;19.60;99.90;;;;;;6266942;22;20194;-93
2022/10/30 14:42:51;;;;;;;5.70;3.47;;;19.50;99.90;;;;;;6290867;22;20154;-91
2022/10/30 14:45:48;;;;;;;6.50;3.63;;;19.50;99.90;;;;;;6268766;22;20161;-89
2022/10/30 14:48:27;;;;;;;3.90;3.50;;;19.50;99.90;;;;;;6301848;22;20115;-90
2022/10/30 14:51:17;;;;;;;6.20;3.93;;;19.40;99.90;;;;;;6301687;22;20126;-95
2022/10/30 14:54:00;;;;;;;7.23;3.80;;;19.40;99.90;;;;;;6294523;22;20155;-96
2022/10/30 14:56:47;;;;;;;7.43;3.53;;;19.30;99.90;;;;;;6267985;22;20193;-95
2022/10/30 14:59:16;;;;;;;6.63;3.37;;;19.20;99.90;;;;;;6290696;22;20163;-91
2022/10/30 15:02:11;;;;;;;4.47;3.83;;;19.20;99.90;;;;;;6293583;22;20153;-91
2022/10/30 15:05:07;;;;;;;6.03;3.50;;;19.10;99.90;;;;;;6296121;22;20189;-95
2022/10/30 15:07:53;;;;;;;4.57;3.60;;;19.00;99.90;;;;;;6298561;22;20149;-90
2022/10/30 15:10:25;;;;;;;7.67;4.10;;;18.90;99.90;;;;;;6292676;22;20134;-95
2022/10/30 15:13:04;;;;;;;5.00;3.17;;;18.80;99.90;;;;;;6292066;22;20182;-95
2022/10/30 15:15:30;;;;;;;5.83;3.40;;;18.80;99.90;;;;;;6291345;22;20744;-95
2022/10/30 15:18:00;;;;;;;5.47;3.40;;;18.70;99.90;;;;;;6233540;22;20273;-95
2022/10/30 15:20:32;;;;;;;4.60;3.77;;;18.60;99.90;;;;;;6289579;22;20588;-91
2022/10/30 15:23:02;;;;;;;5.30;3.40;;;18.50;99.90;;;;;;6259881;22;20502;-93
2022/10/30 15:25:54;;;;;;;6.63;3.90;;;18.50;99.90;;;;;;6287605;22;20131;-92
2022/10/30 15:28:23;;;;;;;5.53;4.80;;;18.40;99.90;;;;;;6264259;22;20163;-93
2022/10/30 15:31:07;;;;;;;4.07;3.67;;;18.30;99.90;;;;;;6285447;22;20142;-93
2022/10/30 15:33:39;;;;;;;5.23;4.10;;;18.20;99.90;;;;;;6287377;22;20139;-95
2022/10/30 15:36:22;;;;;;;7.33;4.00;;;18.10;99.90;;;;;;6262716;22;20454;-92
2022/10/30 15:39:10;;;;;;;7.40;5.03;;;18.10;99.90;;;;;;6272749;22;20212;-89
2022/10/30 15:42:05;;;;;;;4.80;3.73;;;18.00;99.90;;;;;;6298383;22;20190;-92
2022/10/30 15:44:54;;;;;;;4.50;3.80;;;17.90;99.90;;;;;;6241880;22;20155;-89
2022/10/30 15:47:21;;;;;;;6.30;3.67;;;17.80;99.90;;;;;;6292089;22;20146;-95
2022/10/30 15:49:53;;;;;;;5.17;4.03;;;17.70;99.90;;;;;;6296883;22;20130;-92
2022/10/30 15:52:31;;;;;;;6.77;4.13;;;17.60;99.90;;;;;;6274821;22;20601;-93
2022/10/30 15:55:06;;;;;;;10.33;3.70;;;17.50;99.90;;;;;;6261479;22;20154;-96
2022/10/30 15:57:52;;;;;;;7.20;4.20;;;17.40;99.90;;;;;;6265850;22;20186;-91
2022/10/30 16:00:29;;;;;;;6.30;4.07;;;17.40;99.90;;;;;;6268630;22;20138;-91
2022/10/30 16:03:04;;;;;;;5.23;3.70;;;17.30;99.90;;;;;;6273668;22;20214;-90
2022/10/30 16:05:30;;;;;;;5.57;3.73;;;17.20;99.90;;;;;;6303740;22;20125;-89
2022/10/30 16:07:57;;;;;;;6.97;4.17;;;17.10;99.90;;;;;;6278912;22;20177;-92
2022/10/30 16:10:30;;;;;;;8.33;4.77;;;17.00;99.90;;;;;;6314316;22;20185;-89
2022/10/30 16:12:57;;;;;;;4.57;4.17;;;17.00;99.90;;;;;;6301215;22;20150;-89
2022/10/30 16:15:38;;;;;;;10.17;5.13;;;16.90;99.90;;;;;;6297766;22;20175;-90
2022/10/30 16:18:09;;;;;;;12.07;5.37;;;16.80;99.90;;;;;;6292973;22;20222;-89
2022/10/30 16:23:12;;;;;;;8.43;5.33;;;16.70;99.90;;;;;;6282391;22;20198;-89
2022/10/30 16:25:39;;;;;;;7.70;4.90;;;16.60;99.90;;;;;;6250023;22;20250;-90
2022/10/30 16:28:32;;;;;;;8.00;4.50;;;16.60;99.90;;;;;;6239253;23;20147;-92
2022/10/30 16:31:13;;;;;;;8.47;5.00;;;16.50;99.90;;;;;;6240924;23;20279;-89
2022/10/30 16:36:45;;;;;;;9.97;5.30;;;16.50;99.90;;;;;;6242162;23;20171;-90
2022/10/30 16:39:18;;;;;;;5.77;4.80;;;16.40;99.90;;;;;;6241035;23;20166;-92